Terminal Aerodrome Forecast
Issued by NWS Knoxville/Tri Cities, TN

Home | Current Version | Previous Version | Text Only | Print | Product List | Glossary On
Versions: 1 2 3 4 5 6 7 8 9 10 11 12 13 14 15 16 17 18 19 20 21 22 23 24 25 26 27 28 29 30 31 32 33 34 35 36 37 38 39 40 41 42 43 44 45 46 47 48 49 50
000
FTUS44 KMRX 100656 AAA
TAFTRI
TAF AMD
KTRI 100656Z 1007/1106 26010KT 6SM -SHSN BR OVC030
      TEMPO 1007/1011 2SM -SN BR OVC025
     FM101300 25012G18KT 5SM -SHSN OVC035
     FM102000 26013G20KT 6SM -SN OVC035
     FM110100 26007KT P6SM SCT040 BKN150=

USA.gov is the U.S. government's official web portal to all federal, state and local government web resources and services.